createdAt,value
2018-11-02T00:00:59.566Z,97.09
2018-11-02T00:01:59.595Z,96.84
2018-11-02T00:02:59.545Z,97.09
2018-11-02T00:03:59.533Z,97.05
2018-11-02T00:04:59.524Z,97.05
2018-11-02T00:05:59.515Z,96.73
2018-11-02T00:06:59.503Z,96.84
2018-11-02T00:07:59.501Z,96.94
2018-11-02T00:08:59.481Z,97.09
2018-11-02T00:09:59.471Z,97.15
2018-11-02T00:10:59.458Z,97.36
2018-11-02T00:11:59.463Z,97.25
2018-11-02T00:12:59.436Z,97.56
2018-11-02T00:13:59.455Z,97.66
2018-11-02T00:14:59.416Z,97.66
2018-11-02T00:15:59.407Z,97.05
2018-11-02T00:16:59.395Z,97.25
2018-11-02T00:17:59.384Z,97.25
2018-11-02T00:18:59.374Z,97.56
2018-11-02T00:19:59.375Z,97.52
2018-11-02T00:20:59.353Z,97.25
2018-11-02T00:21:59.341Z,97.45
2018-11-02T00:22:59.332Z,97.45
2018-11-02T00:23:59.319Z,97.41
2018-11-02T00:24:59.335Z,96.94
2018-11-02T00:25:59.299Z,96.90
2018-11-02T00:26:59.289Z,96.90
2018-11-02T00:27:59.284Z,96.39
2018-11-02T00:28:59.269Z,96.48
2018-11-02T00:29:59.259Z,96.39
2018-11-02T00:30:59.265Z,96.59
2018-11-02T00:31:59.288Z,96.69
2018-11-02T00:32:59.225Z,96.69
2018-11-02T00:33:59.227Z,96.59
2018-11-02T00:34:59.235Z,96.69
2018-11-02T00:35:59.193Z,96.69
2018-11-02T00:36:59.195Z,96.28
2018-11-02T00:37:59.169Z,96.39
2018-11-02T00:38:59.160Z,96.69
2018-11-02T00:39:59.148Z,96.28
2018-11-02T00:40:59.166Z,96.48
2018-11-02T00:41:59.128Z,96.59
2018-11-02T00:42:59.116Z,96.39
2018-11-02T00:43:59.173Z,96.34
2018-11-02T00:44:59.095Z,96.34
2018-11-02T00:45:59.083Z,96.65
2018-11-02T00:46:59.083Z,96.55
2018-11-02T00:47:59.061Z,96.55
2018-11-02T00:48:59.050Z,96.75
2018-11-02T00:49:59.052Z,96.65
2018-11-02T00:50:59.028Z,96.55
2018-11-02T00:51:59.016Z,96.70
2018-11-02T00:52:59.007Z,95.98
2018-11-02T00:53:59.079Z,96.19
2018-11-02T00:54:58.984Z,96.30
2018-11-02T00:55:58.974Z,96.40
2018-11-02T00:56:58.963Z,96.25
2018-11-02T00:57:58.952Z,95.98
2018-11-02T00:58:58.943Z,96.09
2018-11-02T00:59:58.963Z,95.84
2018-11-02T01:00:58.919Z,95.64
2018-11-02T01:01:58.909Z,95.74
2018-11-02T01:02:58.899Z,95.43
2018-11-02T01:03:58.887Z,95.64
2018-11-02T01:04:58.890Z,95.64
2018-11-02T01:05:58.887Z,95.84
2018-11-02T01:06:58.855Z,95.84
2018-11-02T01:07:58.844Z,95.53
2018-11-02T01:08:58.832Z,95.94
2018-11-02T01:09:58.822Z,95.74
2018-11-02T01:10:58.836Z,95.43
2018-11-02T01:11:58.801Z,95.18
2018-11-02T01:12:58.789Z,94.67
2018-11-02T01:13:58.778Z,94.87
2018-11-02T01:14:58.767Z,94.81
2018-11-02T01:15:58.756Z,94.56
2018-11-02T01:16:58.759Z,94.56
2018-11-02T01:17:58.733Z,94.77
2018-11-02T01:18:58.726Z,94.46
2018-11-02T01:19:58.712Z,94.46
2018-11-02T01:20:58.774Z,94.56
2018-11-02T01:21:58.731Z,94.56
2018-11-02T01:22:58.679Z,94.56
2018-11-02T01:23:58.668Z,94.26
2018-11-02T01:24:58.659Z,94.67
2018-11-02T01:25:58.675Z,94.46
2018-11-02T01:26:58.635Z,94.46
2018-11-02T01:27:58.634Z,94.56
2018-11-02T01:28:58.615Z,94.56
2018-11-02T01:29:58.602Z,94.46
2018-11-02T01:30:58.592Z,94.77
2018-11-02T01:31:58.581Z,94.46
2018-11-02T01:32:58.584Z,94.67
2018-11-02T01:33:58.557Z,94.46
2018-11-02T01:34:58.547Z,94.77
2018-11-02T01:35:58.536Z,93.95
2018-11-02T01:36:58.542Z,93.95
2018-11-02T01:37:58.527Z,94.32
2018-11-02T01:38:58.513Z,94.26
2018-11-02T01:39:58.492Z,94.26
2018-11-02T01:40:58.481Z,94.15
2018-11-02T01:41:58.471Z,94.15
2018-11-02T01:42:58.492Z,93.44
2018-11-02T01:43:58.448Z,93.33
2018-11-02T01:44:58.439Z,93.74
2018-11-02T01:45:58.426Z,93.33
2018-11-02T01:46:58.417Z,93.74
2018-11-02T01:47:58.403Z,93.74
2018-11-02T01:48:58.407Z,93.64
2018-11-02T01:49:58.382Z,93.54
2018-11-02T01:50:58.371Z,93.54
2018-11-02T01:51:58.374Z,94.15
2018-11-02T01:52:58.359Z,94.10
2018-11-02T01:53:58.352Z,94.20
2018-11-02T01:54:58.327Z,94.30
2018-11-02T01:55:58.317Z,94.30
2018-11-02T01:56:58.306Z,94.30
2018-11-02T01:57:58.294Z,94.10
2018-11-02T01:58:58.298Z,94.30
2018-11-02T01:59:58.287Z,93.89
2018-11-02T02:00:58.262Z,93.89
2018-11-02T02:01:58.251Z,94.20
2018-11-02T02:02:58.245Z,94.96
2018-11-02T02:03:58.244Z,94.65
2018-11-02T02:04:58.221Z,94.55
2018-11-02T02:05:58.207Z,94.65
2018-11-02T02:06:58.199Z,94.34
2018-11-02T02:07:58.186Z,94.24
2018-11-02T02:08:58.205Z,95.01
2018-11-02T02:09:58.169Z,94.85
2018-11-02T02:10:58.154Z,95.27
2018-11-02T02:11:58.145Z,94.80
2018-11-02T02:12:58.139Z,95.21
2018-11-02T02:13:58.123Z,95.68
2018-11-02T02:14:58.124Z,95.83
2018-11-02T02:15:58.098Z,95.52
2018-11-02T02:16:58.089Z,95.57
2018-11-02T02:17:58.077Z,95.62
2018-11-02T02:18:58.066Z,95.68
2018-11-02T02:19:58.106Z,94.85
2018-11-02T02:20:58.050Z,94.80
2018-11-02T02:21:58.034Z,94.34
2018-11-02T02:22:58.050Z,94.55
2018-11-02T02:23:58.013Z,94.34
2018-11-02T02:24:58.002Z,94.96
2018-11-02T02:25:58.044Z,94.65
2018-11-02T02:26:57.980Z,94.55
2018-11-02T02:27:57.971Z,94.55
2018-11-02T02:28:57.959Z,94.81
2018-11-02T02:29:57.948Z,93.93
2018-11-02T02:30:57.950Z,94.10
2018-11-02T02:31:57.926Z,94.10
2018-11-02T02:32:57.947Z,93.93
2018-11-02T02:33:57.911Z,93.83
2018-11-02T02:34:57.892Z,94.04
2018-11-02T02:35:57.882Z,94.04
2018-11-02T02:36:57.871Z,94.45
2018-11-02T02:37:57.862Z,94.59
2018-11-02T02:38:57.865Z,94.55
2018-11-02T02:39:57.839Z,94.90
2018-11-02T02:40:57.828Z,94.65
2018-11-02T02:41:57.819Z,94.90
2018-11-02T02:42:57.805Z,94.65
2018-11-02T02:43:57.810Z,94.80
2018-11-02T02:44:57.782Z,94.65
2018-11-02T02:45:57.773Z,94.49
2018-11-02T02:46:57.776Z,94.76
2018-11-02T02:47:57.764Z,94.55
2018-11-02T02:48:57.741Z,94.76
2018-11-02T02:49:57.729Z,94.76
2018-11-02T02:50:57.721Z,94.65
2018-11-02T02:51:57.709Z,95.01
2018-11-02T02:52:57.728Z,94.96
2018-11-02T02:53:57.686Z,95.06
2018-11-02T02:54:57.676Z,94.65
2018-11-02T02:55:57.662Z,94.04
2018-11-02T02:56:57.667Z,94.34
2018-11-02T02:57:57.641Z,94.20
2018-11-02T02:58:57.646Z,93.89
2018-11-02T02:59:57.620Z,93.38
2018-11-02T03:00:57.611Z,93.07
2018-11-02T03:01:57.599Z,93.38
2018-11-02T03:02:57.602Z,93.07
2018-11-02T03:03:57.577Z,92.86
2018-11-02T03:04:57.613Z,93.27
2018-11-02T03:05:57.558Z,92.76
2018-11-02T03:06:57.544Z,92.76
2018-11-02T03:07:57.534Z,93.07
2018-11-02T03:08:57.522Z,93.07
2018-11-02T03:09:57.512Z,93.17
2018-11-02T03:10:57.707Z,92.97
2018-11-02T03:11:57.492Z,92.66
2018-11-02T03:12:57.480Z,92.86
2018-11-02T03:13:57.470Z,93.27
2018-11-02T03:14:57.459Z,93.27
2018-11-02T03:15:57.446Z,92.97
2018-11-02T03:16:57.450Z,92.66
2018-11-02T03:17:57.424Z,93.12
2018-11-02T03:18:57.417Z,92.97
2018-11-02T03:19:57.403Z,92.66
2018-11-02T03:20:57.394Z,93.12
2018-11-02T03:21:57.467Z,92.91
2018-11-02T03:22:57.369Z,92.97
2018-11-02T03:23:57.362Z,92.97
2018-11-02T03:24:57.349Z,92.25
2018-11-02T03:25:57.337Z,91.74
2018-11-02T03:26:57.327Z,92.25
2018-11-02T03:27:57.345Z,92.25
2018-11-02T03:28:57.304Z,91.84
2018-11-02T03:29:57.313Z,92.14
2018-11-02T03:30:57.284Z,91.74
2018-11-02T03:31:57.272Z,91.84
2018-11-02T03:32:57.275Z,91.38
2018-11-02T03:33:57.256Z,90.87
2018-11-02T03:34:57.241Z,91.69
2018-11-02T03:35:57.228Z,91.69
2018-11-02T03:36:57.222Z,91.22
2018-11-02T03:37:57.221Z,91.08
2018-11-02T03:38:57.198Z,90.56
2018-11-02T03:39:57.183Z,90.87
2018-11-02T03:40:57.203Z,91.38
2018-11-02T03:41:57.162Z,91.38
2018-11-02T03:42:57.150Z,91.38
2018-11-02T03:43:57.139Z,91.28
2018-11-02T03:44:57.133Z,91.12
2018-11-02T03:45:57.118Z,91.18
2018-11-02T03:46:57.121Z,90.67
2018-11-02T03:47:57.110Z,90.46
2018-11-02T03:48:57.084Z,90.36
2018-11-02T03:49:57.074Z,90.26
2018-11-02T03:50:57.091Z,90.46
2018-11-02T03:51:57.052Z,90.16
2018-11-02T03:52:57.082Z,90.46
2018-11-02T03:53:57.033Z,90.36
2018-11-02T03:54:57.028Z,90.32
2018-11-02T03:55:57.008Z,90.36
2018-11-02T03:56:57.140Z,89.64
2018-11-02T03:57:57.045Z,90.05
2018-11-02T03:58:56.991Z,89.90
2018-11-02T03:59:56.979Z,89.95
2018-11-02T04:00:56.954Z,89.54
2018-11-02T04:01:56.942Z,89.84
2018-11-02T04:02:56.931Z,90.16
2018-11-02T04:03:56.959Z,89.75
2018-11-02T04:04:56.910Z,89.43
2018-11-02T04:05:56.898Z,89.03
2018-11-02T04:06:56.887Z,88.88
2018-11-02T04:07:56.877Z,89.23
2018-11-02T04:08:56.868Z,88.68
2018-11-02T04:09:56.867Z,88.68
2018-11-02T04:10:56.842Z,88.27
2018-11-02T04:11:56.834Z,88.57
2018-11-02T04:12:56.821Z,88.98
2018-11-02T04:13:56.811Z,88.88
2018-11-02T04:14:56.812Z,88.72
2018-11-02T04:15:56.789Z,88.37
2018-11-02T04:16:56.792Z,89.50
2018-11-02T04:17:56.768Z,89.03
2018-11-02T04:18:56.758Z,89.33
2018-11-02T04:19:56.760Z,89.84
2018-11-02T04:20:56.733Z,89.13
2018-11-02T04:21:56.722Z,89.23
2018-11-02T04:22:56.711Z,89.13
2018-11-02T04:23:56.701Z,88.92
2018-11-02T04:24:56.703Z,89.33
2018-11-02T04:25:56.679Z,89.29
2018-11-02T04:26:56.667Z,89.54
2018-11-02T04:27:56.657Z,89.64
2018-11-02T04:28:56.646Z,89.75
2018-11-02T04:29:56.648Z,89.23
2018-11-02T04:30:56.686Z,88.98
2018-11-02T04:31:56.614Z,88.78
2018-11-02T04:32:56.614Z,88.78
2018-11-02T04:33:56.608Z,88.88
2018-11-02T04:34:56.646Z,88.82
2018-11-02T04:35:56.569Z,89.19
2018-11-02T04:36:56.560Z,89.09
2018-11-02T04:37:56.551Z,88.78
2018-11-02T04:38:56.536Z,89.09
2018-11-02T04:39:56.539Z,88.27
2018-11-02T04:40:56.514Z,88.68
2018-11-02T04:41:56.505Z,88.78
2018-11-02T04:42:56.511Z,89.19
2018-11-02T04:43:56.484Z,88.68
2018-11-02T04:44:56.483Z,89.39
2018-11-02T04:45:56.459Z,89.09
2018-11-02T04:46:56.447Z,89.09
2018-11-02T04:47:56.437Z,88.68
2018-11-02T04:48:56.440Z,88.78
2018-11-02T04:49:56.414Z,88.17
2018-11-02T04:50:56.478Z,88.37
2018-11-02T04:51:56.393Z,88.68
2018-11-02T04:52:56.397Z,87.65
2018-11-02T04:53:56.384Z,87.51
2018-11-02T04:54:56.364Z,88.02
2018-11-02T04:55:56.350Z,87.92
2018-11-02T04:56:56.352Z,88.17
2018-11-02T04:57:56.328Z,87.61
2018-11-02T04:58:56.318Z,87.96
2018-11-02T04:59:56.328Z,87.82
2018-11-02T05:00:56.293Z,87.85
2018-11-02T05:01:56.298Z,87.96
2018-11-02T05:02:56.272Z,87.96
2018-11-02T05:03:56.262Z,87.96
2018-11-02T05:04:56.250Z,87.45
2018-11-02T05:05:56.239Z,87.41
2018-11-02T05:06:56.254Z,87.04
2018-11-02T05:07:56.220Z,87.10
2018-11-02T05:08:56.219Z,87.82
2018-11-02T05:09:56.336Z,87.61
2018-11-02T05:10:56.184Z,88.06
2018-11-02T05:11:56.174Z,88.06
2018-11-02T05:12:56.177Z,87.61
2018-11-02T05:13:56.173Z,87.92
2018-11-02T05:14:56.166Z,86.99
2018-11-02T05:15:56.129Z,86.69
2018-11-02T05:16:56.118Z,87.61
2018-11-02T05:17:56.122Z,87.41
2018-11-02T05:18:56.096Z,88.12
2018-11-02T05:19:56.087Z,87.96
2018-11-02T05:20:56.076Z,87.45
2018-11-02T05:21:56.062Z,87.76
2018-11-02T05:22:56.108Z,87.96
2018-11-02T05:23:56.042Z,87.24
2018-11-02T05:24:56.029Z,87.61
2018-11-02T05:25:56.019Z,87.61
2018-11-02T05:26:56.007Z,87.55
2018-11-02T05:27:56.013Z,87.96
2018-11-02T05:28:55.985Z,87.45
2018-11-02T05:29:55.987Z,87.65
2018-11-02T05:30:55.966Z,87.96
2018-11-02T05:31:55.955Z,88.47
2018-11-02T05:32:55.941Z,87.96
2018-11-02T05:33:55.961Z,87.96
2018-11-02T05:34:55.919Z,86.93
2018-11-02T05:35:55.915Z,86.38
2018-11-02T05:36:55.897Z,86.52
2018-11-02T05:37:55.885Z,86.79
2018-11-02T05:38:55.875Z,86.48
2018-11-02T05:39:55.878Z,86.28
2018-11-02T05:40:55.860Z,86.38
2018-11-02T05:41:55.843Z,86.32
2018-11-02T05:42:55.833Z,86.28
2018-11-02T05:43:55.844Z,85.77
2018-11-02T05:44:55.821Z,86.38
2018-11-02T05:45:55.802Z,85.97
2018-11-02T05:46:55.788Z,85.97
2018-11-02T05:47:55.776Z,85.97
2018-11-02T05:48:55.790Z,86.48
2018-11-02T05:49:55.803Z,86.38
2018-11-02T05:50:55.744Z,85.97
2018-11-02T05:51:55.735Z,85.66
2018-11-02T05:52:55.721Z,86.42
2018-11-02T05:53:55.716Z,86.48
2018-11-02T05:54:55.711Z,86.22
2018-11-02T05:55:55.702Z,86.48
2018-11-02T05:56:55.679Z,86.42
2018-11-02T05:57:55.678Z,86.28
2018-11-02T05:58:55.657Z,86.38
2018-11-02T05:59:55.646Z,86.69
2018-11-02T06:00:55.662Z,86.42
2018-11-02T06:01:55.624Z,86.32
2018-11-02T06:02:55.612Z,86.63
2018-11-02T06:03:55.601Z,86.73
2018-11-02T06:04:55.613Z,87.96
2018-11-02T06:05:55.582Z,88.12
2018-11-02T06:06:55.581Z,88.06
2018-11-02T06:07:55.585Z,88.37
2018-11-02T06:08:55.548Z,88.27
2018-11-02T06:09:55.536Z,88.21
2018-11-02T06:10:55.535Z,88.57
2018-11-02T06:11:55.552Z,89.33
2018-11-02T06:12:55.505Z,89.43
2018-11-02T06:13:55.492Z,89.84
2018-11-02T06:14:55.482Z,90.46
2018-11-02T06:15:55.470Z,90.77
2018-11-02T06:16:55.502Z,90.97
2018-11-02T06:17:55.458Z,91.42
2018-11-02T06:18:55.437Z,91.74
2018-11-02T06:19:55.425Z,91.42
2018-11-02T06:20:55.417Z,92.04
2018-11-02T06:21:55.414Z,91.94
2018-11-02T06:22:55.393Z,91.94
2018-11-02T06:23:55.384Z,92.29
2018-11-02T06:24:55.370Z,92.66
2018-11-02T06:25:55.360Z,92.86
2018-11-02T06:26:55.374Z,92.91
2018-11-02T06:27:55.339Z,93.17
2018-11-02T06:32:28.450Z,93.89
2018-11-02T06:33:28.395Z,94.96
2018-11-02T06:34:28.384Z,94.45
2018-11-02T06:35:28.371Z,94.55
2018-11-02T06:36:28.382Z,94.65
2018-11-02T06:37:28.361Z,94.85
2018-11-02T06:38:28.368Z,94.34
2018-11-02T06:39:28.329Z,95.06
2018-11-02T06:40:28.334Z,94.96
2018-11-02T06:41:28.306Z,94.85
2018-11-02T06:42:28.296Z,95.01
2018-11-02T06:43:28.315Z,95.78
2018-11-02T06:44:28.277Z,94.85
2018-11-02T06:45:28.272Z,94.85
2018-11-02T06:46:28.252Z,95.01
2018-11-02T06:47:28.241Z,94.65
2018-11-02T06:48:28.231Z,94.76
2018-11-02T06:49:28.245Z,94.80
2018-11-02T06:50:28.210Z,94.96
2018-11-02T06:51:28.198Z,94.85
2018-11-02T06:52:28.187Z,95.93
2018-11-02T06:53:28.175Z,95.47
2018-11-02T06:54:28.171Z,95.57
2018-11-02T06:55:28.188Z,95.37
2018-11-02T06:56:28.142Z,95.89
2018-11-02T06:57:28.132Z,95.83
2018-11-02T06:58:28.174Z,95.78
2018-11-02T06:59:28.231Z,95.72
2018-11-02T07:00:28.222Z,95.83
2018-11-02T07:01:28.089Z,95.83
2018-11-02T07:02:28.078Z,95.83
2018-11-02T07:03:28.068Z,95.72
2018-11-02T07:04:28.070Z,95.83
2018-11-02T07:05:28.044Z,95.83
2018-11-02T07:06:28.057Z,95.62
2018-11-02T07:07:28.244Z,95.83
2018-11-02T07:08:28.179Z,95.93
2018-11-02T07:09:28.040Z,95.83
2018-11-02T07:10:27.988Z,95.83
2018-11-02T07:11:27.981Z,95.72
2018-11-02T07:12:27.966Z,95.83
2018-11-02T07:13:27.956Z,95.93
2018-11-02T07:14:27.948Z,95.83
2018-11-02T07:15:27.949Z,95.72
2018-11-02T07:16:27.923Z,95.62
2018-11-02T07:17:27.928Z,95.83
2018-11-02T07:18:27.904Z,95.83
2018-11-02T07:19:27.891Z,95.93
2018-11-02T07:20:27.906Z,95.62
2018-11-02T07:21:27.868Z,95.62
2018-11-02T07:22:27.860Z,95.83
2018-11-02T07:23:27.847Z,95.93
2018-11-02T07:24:27.837Z,95.72
2018-11-02T07:25:27.829Z,95.83
2018-11-02T07:26:27.848Z,95.83
2018-11-02T07:27:27.829Z,95.72
2018-11-02T07:28:27.792Z,96.03
2018-11-02T07:29:27.782Z,96.03
2018-11-02T07:30:27.770Z,96.03
2018-11-02T07:31:27.762Z,96.03
2018-11-02T07:32:27.785Z,95.52
2018-11-02T07:33:27.738Z,95.93
2018-11-02T07:34:27.807Z,96.03
2018-11-02T07:35:27.715Z,95.42
2018-11-02T07:36:27.721Z,95.83
2018-11-02T07:37:27.705Z,95.72
2018-11-02T07:38:27.682Z,95.83
2018-11-02T07:39:27.670Z,96.03
2018-11-02T07:40:27.660Z,95.31
2018-11-02T07:41:27.649Z,95.31
2018-11-02T07:42:27.652Z,95.83
2018-11-02T07:43:27.628Z,95.78
2018-11-02T07:44:27.632Z,95.31
2018-11-02T07:45:27.606Z,95.62
2018-11-02T07:46:27.594Z,95.37
2018-11-02T07:47:27.628Z,95.57
2018-11-02T07:48:27.600Z,95.57
2018-11-02T07:49:27.615Z,95.47
2018-11-02T07:50:27.551Z,95.27
2018-11-02T07:51:27.542Z,95.37
2018-11-02T07:52:27.532Z,95.37
2018-11-02T07:53:27.534Z,95.93
2018-11-02T07:54:27.508Z,95.89
2018-11-02T07:55:27.495Z,95.68
2018-11-02T07:56:27.485Z,95.83
2018-11-02T07:57:27.475Z,95.47
2018-11-02T07:58:27.477Z,95.57
2018-11-02T07:59:27.466Z,95.72
2018-11-02T08:00:27.439Z,95.72
2018-11-02T08:01:27.430Z,95.83
2018-11-02T08:02:27.433Z,95.83
2018-11-02T08:03:27.408Z,95.83
2018-11-02T08:04:27.401Z,95.62
2018-11-02T08:05:27.400Z,96.03
2018-11-02T08:06:27.388Z,96.14
2018-11-02T08:07:27.364Z,95.83
2018-11-02T08:08:27.385Z,96.44
2018-11-02T08:09:27.341Z,96.44
2018-11-02T08:10:27.331Z,96.23
2018-11-02T08:11:27.356Z,96.75
2018-11-02T08:12:27.308Z,96.03
2018-11-02T08:13:27.301Z,96.34
2018-11-02T08:14:27.298Z,96.44
2018-11-02T08:15:27.308Z,96.65
2018-11-02T08:16:27.265Z,96.34
2018-11-02T08:17:27.264Z,96.85
2018-11-02T08:18:27.243Z,97.00
2018-11-02T08:19:27.233Z,96.90
2018-11-02T08:20:27.220Z,97.41
2018-11-02T08:21:27.240Z,97.20
2018-11-02T08:22:27.199Z,97.00
2018-11-02T08:23:27.186Z,97.16
2018-11-02T08:24:27.194Z,97.37
2018-11-02T08:25:27.166Z,97.06
2018-11-02T08:26:27.157Z,96.85
2018-11-02T08:27:27.157Z,97.06
2018-11-02T08:28:27.131Z,97.31
2018-11-02T08:29:27.121Z,96.90
2018-11-02T08:30:27.120Z,97.20
2018-11-02T08:31:27.099Z,97.47
2018-11-02T08:32:27.119Z,97.99
2018-11-02T08:33:27.077Z,97.06
2018-11-02T08:34:27.065Z,97.06
2018-11-02T08:35:27.060Z,97.57
2018-11-02T08:36:27.044Z,97.57
2018-11-02T08:37:27.032Z,97.67
2018-11-02T08:38:27.036Z,97.37
2018-11-02T08:39:27.012Z,97.37
2018-11-02T08:40:27.002Z,97.27
2018-11-02T08:41:27.368Z,97.94
2018-11-02T08:42:26.978Z,97.32
2018-11-02T08:43:26.988Z,97.02
2018-11-02T08:44:26.954Z,97.02
2018-11-02T08:45:26.945Z,97.22
2018-11-02T08:46:26.959Z,97.02
2018-11-02T08:47:26.924Z,97.22
2018-11-02T08:48:26.929Z,97.32
2018-11-02T08:49:26.902Z,96.91
2018-11-02T08:50:26.889Z,97.47
2018-11-02T08:51:26.880Z,97.06
2018-11-02T08:52:26.984Z,96.50
2018-11-02T08:53:26.872Z,96.55
2018-11-02T08:54:26.846Z,96.50
2018-11-02T08:55:26.836Z,96.60
2018-11-02T08:56:26.827Z,96.40
2018-11-02T08:57:26.815Z,96.81
2018-11-02T08:58:27.026Z,96.30
2018-11-02T08:59:26.880Z,96.34
2018-11-02T09:00:26.781Z,95.93
2018-11-02T09:01:26.770Z,96.19
2018-11-02T09:02:26.764Z,96.09
2018-11-02T09:03:26.749Z,95.47
2018-11-02T09:04:26.764Z,95.78
2018-11-02T09:05:26.729Z,95.89
2018-11-02T09:06:26.716Z,95.89
2018-11-02T09:07:26.704Z,95.68
2018-11-02T09:08:26.694Z,95.89
2018-11-02T09:09:26.682Z,95.89
2018-11-02T09:10:26.704Z,95.57
2018-11-02T09:11:26.660Z,95.74
2018-11-02T09:12:26.652Z,95.94
2018-11-02T09:13:26.653Z,95.43
2018-11-02T09:14:26.627Z,95.37
2018-11-02T09:15:26.631Z,94.61
2018-11-02T09:16:26.607Z,94.81
2018-11-02T09:17:26.596Z,94.51
2018-11-02T09:18:26.587Z,94.30
2018-11-02T09:19:26.642Z,95.07
2018-11-02T09:20:26.579Z,94.77
2018-11-02T09:21:26.915Z,94.92
2018-11-02T09:22:26.542Z,94.51
2018-11-02T09:23:26.531Z,94.56
2018-11-02T09:24:26.519Z,94.05
2018-11-02T09:25:26.512Z,93.85
2018-11-02T09:26:26.501Z,94.15
2018-11-02T09:27:26.521Z,94.05
2018-11-02T09:28:26.478Z,93.44
2018-11-02T09:29:26.471Z,93.74
2018-11-02T09:30:26.457Z,93.23
2018-11-02T09:31:26.445Z,94.15
2018-11-02T09:32:26.449Z,94.21
2018-11-02T09:33:26.425Z,94.15
2018-11-02T09:34:26.413Z,93.02
2018-11-02T09:35:26.402Z,93.13
2018-11-02T09:36:26.438Z,93.08
2018-11-02T09:37:26.380Z,93.08
2018-11-02T09:38:26.370Z,92.98
2018-11-02T09:39:26.359Z,92.78
2018-11-02T09:40:26.477Z,93.49
2018-11-02T09:41:26.337Z,93.23
2018-11-02T09:42:26.360Z,93.44
2018-11-02T09:43:26.315Z,93.19
2018-11-02T09:44:26.306Z,93.08
2018-11-02T09:45:26.294Z,92.72
2018-11-02T09:46:26.293Z,92.82
2018-11-02T09:47:26.272Z,92.72
2018-11-02T09:48:26.261Z,92.78
2018-11-02T09:49:26.263Z,92.88
2018-11-02T09:50:26.240Z,92.78
2018-11-02T09:51:26.247Z,92.88
2018-11-02T09:52:26.232Z,92.68
2018-11-02T09:53:26.207Z,92.36
2018-11-02T09:54:26.226Z,92.98
2018-11-02T09:55:26.186Z,91.96
2018-11-02T09:56:26.175Z,92.36
2018-11-02T09:57:26.182Z,92.47
2018-11-02T09:58:26.154Z,92.98
2018-11-02T09:59:26.143Z,93.15
2018-11-02T10:00:26.142Z,92.43
2018-11-02T10:01:26.120Z,92.43
2018-11-02T10:02:26.109Z,91.61
2018-11-02T10:03:26.112Z,91.71
2018-11-02T10:04:26.088Z,92.02
2018-11-02T10:05:26.077Z,91.71
2018-11-02T10:06:26.066Z,91.82
2018-11-02T10:07:26.055Z,91.30
2018-11-02T10:08:26.111Z,91.20
2018-11-02T10:09:26.033Z,91.50
2018-11-02T10:10:26.023Z,92.02
2018-11-02T10:11:26.027Z,91.71
2018-11-02T10:12:26.001Z,91.61
2018-11-02T10:13:26.019Z,91.82
2018-11-02T10:14:25.981Z,91.82
2018-11-02T10:15:25.968Z,92.12
2018-11-02T10:16:25.958Z,91.09
2018-11-02T10:17:25.947Z,90.89
2018-11-02T10:18:25.935Z,90.99
2018-11-02T10:19:25.939Z,91.20
2018-11-02T10:20:25.913Z,90.89
2018-11-02T10:21:25.903Z,90.17
2018-11-02T10:22:25.922Z,90.34
2018-11-02T10:23:25.880Z,89.92
2018-11-02T10:24:25.868Z,88.96
2018-11-02T10:25:25.860Z,88.45
2018-11-02T10:26:25.848Z,88.45
2018-11-02T10:27:25.837Z,88.41
2018-11-02T10:28:25.840Z,88.10
2018-11-02T10:29:25.828Z,87.79
2018-11-02T10:30:25.804Z,87.55
2018-11-02T10:31:25.793Z,87.35
2018-11-02T10:32:25.781Z,87.71
2018-11-02T10:33:25.772Z,87.20
2018-11-02T10:34:25.792Z,87.10
2018-11-02T10:35:25.856Z,87.00
2018-11-02T10:36:25.740Z,86.08
2018-11-02T10:37:25.727Z,86.08
2018-11-02T10:38:25.716Z,85.67
2018-11-02T10:39:25.709Z,85.40
2018-11-02T10:40:25.726Z,85.40
2018-11-02T10:41:25.683Z,84.28
2018-11-02T10:42:25.673Z,84.79
2018-11-02T10:43:25.662Z,84.93
2018-11-02T10:44:25.728Z,85.14
2018-11-02T10:45:25.660Z,85.14
2018-11-02T10:46:25.642Z,85.20
2018-11-02T10:47:25.618Z,86.02
2018-11-02T10:48:25.607Z,86.32
2018-11-02T10:49:25.700Z,85.91
2018-11-02T10:50:25.584Z,83.91
2018-11-02T10:51:25.583Z,84.79
2018-11-02T10:52:25.562Z,83.81
2018-11-02T10:53:25.552Z,84.31
2018-11-02T10:54:25.553Z,85.03
2018-11-02T10:55:25.544Z,85.14
2018-11-02T10:56:25.567Z,84.42
2018-11-02T10:57:25.509Z,84.72
2018-11-02T10:58:25.497Z,84.22
2018-11-02T10:59:25.487Z,84.83
2018-11-02T11:00:25.484Z,85.75
2018-11-02T11:01:25.617Z,83.70
2018-11-02T11:02:25.484Z,84.72
2018-11-02T11:03:25.443Z,84.22
2018-11-02T11:04:25.431Z,84.31
2018-11-02T11:05:25.482Z,85.50
2018-11-02T11:06:25.411Z,83.60
2018-11-02T11:07:25.399Z,83.91
2018-11-02T11:08:25.400Z,85.20
2018-11-02T11:09:25.376Z,83.66
2018-11-02T11:10:25.393Z,82.75
2018-11-02T11:11:25.367Z,83.39
2018-11-02T11:12:25.467Z,83.70
2018-11-02T11:13:25.754Z,83.87
2018-11-02T11:14:25.323Z,84.72
2018-11-02T11:15:25.312Z,84.11
2018-11-02T11:16:25.337Z,84.22
2018-11-02T11:17:25.292Z,84.31
2018-11-02T11:18:25.293Z,83.74
2018-11-02T11:19:25.268Z,83.91
2018-11-02T11:20:25.261Z,84.46
2018-11-02T11:21:25.382Z,83.74
2018-11-02T11:22:25.235Z,84.05
2018-11-02T11:23:25.225Z,85.07
2018-11-02T11:24:25.216Z,84.80
2018-11-02T11:25:25.209Z,84.60
2018-11-02T11:26:25.205Z,85.01
2018-11-02T11:27:25.183Z,85.11
2018-11-02T11:28:25.183Z,86.14
2018-11-02T11:29:25.252Z,86.20
2018-11-02T11:30:25.150Z,87.88
2018-11-02T11:31:25.139Z,87.67
2018-11-02T11:32:25.141Z,86.61
2018-11-02T11:33:25.131Z,85.89
2018-11-02T11:34:25.106Z,86.20
2018-11-02T11:35:25.096Z,86.81
2018-11-02T11:36:25.086Z,86.46
2018-11-02T11:37:25.092Z,86.10
2018-11-02T11:38:25.070Z,86.36
2018-11-02T11:39:25.058Z,86.05
2018-11-02T11:40:25.042Z,84.99
2018-11-02T11:41:25.029Z,84.69
2018-11-02T11:42:25.033Z,84.79
2018-11-02T11:43:25.021Z,84.95
2018-11-02T11:44:24.996Z,84.55
2018-11-02T11:45:25.001Z,83.83
2018-11-02T11:46:24.975Z,83.32
2018-11-02T11:47:24.965Z,82.64
2018-11-02T11:48:24.960Z,83.32
2018-11-02T11:49:24.961Z,83.66
2018-11-02T11:50:24.933Z,83.36
2018-11-02T11:51:24.936Z,84.28
2018-11-02T11:52:24.910Z,83.97
2018-11-02T11:53:24.900Z,83.97
2018-11-02T11:54:24.901Z,84.93
2018-11-02T11:55:24.877Z,83.60
2018-11-02T11:56:24.880Z,84.72
2018-11-02T11:57:24.854Z,84.52
2018-11-02T11:58:24.845Z,83.64
2018-11-02T11:59:24.837Z,85.17
2018-11-02T12:00:24.836Z,84.56
2018-11-02T12:01:24.812Z,84.87
2018-11-02T12:02:24.912Z,86.10
2018-11-02T12:03:24.791Z,86.75
2018-11-02T12:04:24.826Z,86.55
2018-11-02T12:05:24.784Z,86.71
2018-11-02T12:06:24.758Z,87.57
2018-11-02T12:07:24.788Z,87.06
2018-11-02T12:08:24.740Z,86.24
2018-11-02T12:09:24.726Z,85.72
2018-11-02T12:10:24.819Z,86.14
2018-11-02T12:11:24.703Z,86.14
2018-11-02T12:12:24.693Z,86.24
2018-11-02T12:13:24.683Z,86.51
2018-11-02T12:14:24.675Z,86.71
2018-11-02T12:15:24.677Z,86.51
2018-11-02T12:16:24.649Z,86.61
2018-11-02T12:17:24.639Z,87.06
2018-11-02T12:18:24.655Z,86.20
2018-11-02T12:19:24.619Z,86.85
2018-11-02T12:20:24.608Z,87.88
2018-11-02T12:21:24.632Z,87.06
2018-11-02T12:22:24.588Z,88.08
2018-11-02T12:23:24.629Z,87.77
2018-11-02T12:24:24.574Z,88.39
2018-11-02T12:25:24.564Z,88.08
2018-11-02T12:26:24.542Z,88.39
2018-11-02T12:27:24.531Z,88.70
2018-11-02T12:28:24.653Z,89.00
2018-11-02T12:29:24.524Z,88.80
2018-11-02T12:30:24.517Z,89.11
2018-11-02T12:31:24.488Z,88.90
2018-11-02T12:32:24.479Z,89.11
2018-11-02T12:33:24.465Z,89.00
2018-11-02T12:34:24.477Z,88.29
2018-11-02T12:35:24.459Z,88.18
2018-11-02T12:36:24.434Z,87.67
2018-11-02T12:37:24.421Z,87.88
2018-11-02T12:38:24.424Z,87.88
2018-11-02T12:39:24.401Z,88.18
2018-11-02T12:40:24.465Z,87.98
2018-11-02T12:41:24.380Z,87.98
2018-11-02T12:42:24.379Z,88.08
2018-11-02T12:43:24.388Z,87.88
2018-11-02T12:44:24.357Z,87.06
2018-11-02T12:45:24.350Z,86.61
2018-11-02T12:46:24.328Z,86.51
2018-11-02T12:47:24.314Z,86.40
2018-11-02T12:48:24.389Z,85.99
2018-11-02T12:49:24.761Z,86.10
2018-11-02T12:50:24.449Z,86.26
2018-11-02T12:51:24.270Z,86.05
2018-11-02T12:52:24.260Z,85.14
2018-11-02T12:53:24.249Z,84.63
2018-11-02T12:54:24.262Z,83.60
2018-11-02T12:55:24.227Z,83.56
2018-11-02T12:56:24.216Z,83.46